Ottawa Gatineau Airport
CYND : now visible

Airfield :











YOU CAN JOIN US ON...

 
LOGIN :

Register | Disclaimer

   EN    FR    IT 

 









Legend :    VFR   Marginal VFR   IFR   Intensive IFR   Very Intensive IFR
Visi :
Ceiling :
>= 8 km
>= 3000ft
5 to 8 km
1000 to 3000 ft
1500m to 5 km
500 to 1000 ft
800 to 1500m
200 to 500 ft
< 800m
< 200 ft
Symbols :   Thunderstorms  Fog  Heavy snow  Heavy precipitations  Wind > 20 kt






- Airport Elevation : 211 ft
- IATA code : YND


CYND - Ottawa Gatineau

CURRENT METAR :
  • 041300Z VRB02KT 15SM SCT240 06/04 A3023 RMK CI3 SLP242

EXPIRED METARs :
  • 041200Z 30002KT 15SM FEW240 01/01 A3024 RMK CI2 SLP246
  • 041100Z 33003KT 15SM FEW240 M01/M01 A3024 RMK CI1 SLP246

TAF TAF CYND
Valid from the 04 at 13:00 until the 05 at 01:00 UTC


041243Z 0413/0501 VRB03KT P6SM FEW240 RMK NXT FCST BY 041800Z
CZUL FIR / North America



MET'MAP, your aeronautical weather chart ! - Copyright ORBIFLY December 2007 - Disclaimer

ORBIFLY MET'MAP TEAM :

Programming & Development : Alexandra Zaïnal
Original concept : Baudouin d'Aumeries
Technical & hardware support : Manuel Goepfert
Assistance : Marc-Olivier Méhu




SOURCES & CREDITS :

   NOAA       Earth
Advisory